createdAt,value
2023-03-28T00:01:16.512Z,3.50
2023-03-28T00:03:45.044Z,3.50
2023-03-28T00:06:19.191Z,3.40
2023-03-28T00:08:48.226Z,3.40
2023-03-28T00:11:20.430Z,3.30
2023-03-28T00:13:51.506Z,3.20
2023-03-28T00:16:21.698Z,3.20
2023-03-28T00:18:51.315Z,3.10
2023-03-28T00:21:24.557Z,3.10
2023-03-28T00:23:55.735Z,3.10
2023-03-28T00:26:27.148Z,3.00
2023-03-28T00:28:57.466Z,2.90
2023-03-28T00:31:28.200Z,2.90
2023-03-28T00:33:57.790Z,2.80
2023-03-28T00:36:29.931Z,2.80
2023-03-28T00:39:01.559Z,2.80
2023-03-28T00:41:32.427Z,2.80
2023-03-28T00:44:02.555Z,2.80
2023-03-28T00:46:39.530Z,2.80
2023-03-28T00:49:14.375Z,2.70
2023-03-28T00:51:50.726Z,2.70
2023-03-28T00:54:24.190Z,2.70
2023-03-28T00:56:58.459Z,2.60
2023-03-28T00:59:35.950Z,2.50
2023-03-28T01:02:09.555Z,2.50
2023-03-28T01:04:47.614Z,2.50
2023-03-28T01:07:20.889Z,2.50
2023-03-28T01:09:54.064Z,2.50
2023-03-28T01:12:26.504Z,2.50
2023-03-28T01:14:57.184Z,2.40
2023-03-28T01:17:31.202Z,2.30
2023-03-28T01:20:31.043Z,2.30
2023-03-28T01:23:47.613Z,2.30
2023-03-28T01:26:56.465Z,2.30
2023-03-28T01:30:18.171Z,2.20
2023-03-28T01:33:54.316Z,2.20
2023-03-28T01:37:07.674Z,2.10
2023-03-28T01:40:17.081Z,2.20
2023-03-28T01:43:07.435Z,2.10
2023-03-28T01:45:53.038Z,2.10
2023-03-28T01:48:38.691Z,2.10
2023-03-28T01:51:23.699Z,2.00
2023-03-28T01:54:04.901Z,2.00
2023-03-28T01:56:44.794Z,2.00
2023-03-28T01:59:24.068Z,2.00
2023-03-28T02:02:28.244Z,1.90
2023-03-28T02:05:06.341Z,1.90
2023-03-28T02:07:44.745Z,1.80
2023-03-28T02:10:23.108Z,1.80
2023-03-28T02:13:25.457Z,1.80
2023-03-28T02:16:07.626Z,1.80
2023-03-28T02:18:59.933Z,1.80
2023-03-28T02:22:21.553Z,1.70
2023-03-28T02:25:11.878Z,1.80
2023-03-28T02:27:47.437Z,1.80
2023-03-28T02:30:32.456Z,1.70
2023-03-28T02:33:04.403Z,1.70
2023-03-28T02:36:02.525Z,1.70
2023-03-28T02:38:44.591Z,1.60
2023-03-28T02:41:31.061Z,1.60
2023-03-28T02:44:27.100Z,1.60
2023-03-28T02:47:14.027Z,1.60
2023-03-28T02:50:03.269Z,1.60
2023-03-28T02:52:52.471Z,1.50
2023-03-28T02:55:32.604Z,1.40
2023-03-28T02:58:19.694Z,1.40
2023-03-28T03:00:52.286Z,1.40
2023-03-28T03:03:23.768Z,1.40
2023-03-28T03:05:54.441Z,1.40
2023-03-28T03:08:25.864Z,1.40
2023-03-28T03:10:58.520Z,1.40
2023-03-28T03:13:29.955Z,1.40
2023-03-28T03:16:08.682Z,1.40
2023-03-28T03:18:39.042Z,1.40
2023-03-28T03:21:10.633Z,1.40
2023-03-28T03:23:44.374Z,1.40
2023-03-28T03:26:16.434Z,1.40
2023-03-28T03:29:06.673Z,1.30
2023-03-28T03:31:38.462Z,1.30
2023-03-28T03:34:29.471Z,1.30
2023-03-28T03:37:03.257Z,1.30
2023-03-28T03:39:37.460Z,1.30
2023-03-28T03:42:07.042Z,1.30
2023-03-28T03:44:38.062Z,1.20
2023-03-28T03:47:12.087Z,1.20
2023-03-28T03:49:43.802Z,1.20
2023-03-28T03:52:15.189Z,1.20
2023-03-28T03:54:46.065Z,1.10
2023-03-28T03:57:19.044Z,1.10
2023-03-28T03:59:49.150Z,1.00
2023-03-28T04:02:23.707Z,1.10
2023-03-28T04:05:04.767Z,1.00
2023-03-28T04:07:53.523Z,1.00
2023-03-28T04:10:32.288Z,1.00
2023-03-28T04:13:03.661Z,1.00
2023-03-28T04:15:35.804Z,1.00
2023-03-28T04:18:31.926Z,1.00
2023-03-28T04:21:03.492Z,0.90
2023-03-28T04:23:48.974Z,0.90
2023-03-28T04:26:38.348Z,0.90
2023-03-28T04:29:13.283Z,0.90
2023-03-28T04:31:51.032Z,0.90
2023-03-28T04:34:31.293Z,1.00
2023-03-28T04:37:15.737Z,1.00
2023-03-28T04:39:57.071Z,1.00
2023-03-28T04:42:42.395Z,1.00
2023-03-28T04:45:27.030Z,1.00
2023-03-28T04:48:02.224Z,0.90
2023-03-28T04:50:35.951Z,0.90
2023-03-28T04:53:06.237Z,0.80
2023-03-28T04:55:37.968Z,0.90
2023-03-28T04:58:21.547Z,0.80
2023-03-28T05:00:52.114Z,0.80
2023-03-28T05:04:02.573Z,0.80
2023-03-28T05:06:37.696Z,0.80
2023-03-28T05:09:09.686Z,0.80
2023-03-28T05:11:39.895Z,0.80
2023-03-28T05:14:12.071Z,0.80
2023-03-28T05:16:49.945Z,0.80
2023-03-28T05:19:42.732Z,0.80
2023-03-28T05:22:20.539Z,0.80
2023-03-28T05:24:52.651Z,0.80
2023-03-28T05:27:23.380Z,0.80
2023-03-28T05:29:53.586Z,0.80
2023-03-28T05:32:25.271Z,0.90
2023-03-28T05:34:57.161Z,0.90
2023-03-28T05:37:32.998Z,0.90
2023-03-28T05:40:07.135Z,0.90
2023-03-28T05:42:39.243Z,0.90
2023-03-28T05:45:17.107Z,0.90
2023-03-28T05:47:48.424Z,0.90
2023-03-28T05:50:20.057Z,1.00
2023-03-28T05:52:52.930Z,1.00
2023-03-28T05:55:23.180Z,1.00
2023-03-28T05:57:54.441Z,1.00
2023-03-28T06:00:26.469Z,1.10
2023-03-28T06:02:58.257Z,1.20
2023-03-28T06:05:36.284Z,1.30
2023-03-28T06:08:14.807Z,1.40
2023-03-28T06:10:46.228Z,1.50
2023-03-28T06:13:27.206Z,1.60
2023-03-28T06:15:58.048Z,1.60
2023-03-28T06:18:32.891Z,1.80
2023-03-28T06:21:03.438Z,1.90
2023-03-28T06:23:35.298Z,1.90
2023-03-28T06:26:09.529Z,2.00
2023-03-28T06:28:44.962Z,2.10
2023-03-28T06:31:25.528Z,2.20
2023-03-28T06:33:55.066Z,2.30
2023-03-28T06:36:26.463Z,2.40
2023-03-28T06:38:59.671Z,2.60
2023-03-28T06:41:32.576Z,2.60
2023-03-28T06:44:06.088Z,2.80
2023-03-28T06:47:12.449Z,2.90
2023-03-28T06:49:45.790Z,3.10
2023-03-28T06:52:35.657Z,3.20
2023-03-28T06:55:12.082Z,3.40
2023-03-28T06:57:41.137Z,3.50
2023-03-28T07:00:24.013Z,3.60
2023-03-28T07:03:22.181Z,3.80
2023-03-28T07:05:50.972Z,3.90
2023-03-28T07:08:21.467Z,4.00
2023-03-28T07:10:51.623Z,4.10
2023-03-28T07:13:20.168Z,4.20
2023-03-28T07:16:03.798Z,4.40
2023-03-28T07:18:32.566Z,4.50
2023-03-28T07:21:07.033Z,4.60
2023-03-28T07:23:35.763Z,4.70
2023-03-28T07:26:07.352Z,4.80
2023-03-28T07:28:36.769Z,4.90
2023-03-28T07:31:06.124Z,4.90
2023-03-28T07:33:38.589Z,5.00
2023-03-28T07:36:16.265Z,5.00
2023-03-28T07:38:49.215Z,5.10
2023-03-28T07:41:22.405Z,5.20
2023-03-28T07:43:51.277Z,5.30
2023-03-28T07:46:21.068Z,5.40
2023-03-28T07:48:50.057Z,5.40
2023-03-28T07:51:19.725Z,5.40
2023-03-28T07:53:48.489Z,5.30
2023-03-28T07:56:17.186Z,5.30
2023-03-28T07:58:59.396Z,5.40
2023-03-28T08:01:28.569Z,5.40
2023-03-28T08:04:02.057Z,5.40
2023-03-28T08:06:42.235Z,5.50
2023-03-28T08:09:15.386Z,5.70
2023-03-28T08:11:47.829Z,5.80
2023-03-28T08:14:19.549Z,5.90
2023-03-28T08:16:48.396Z,6.00
2023-03-28T08:19:18.140Z,6.10
2023-03-28T08:22:16.737Z,6.10
2023-03-28T08:25:05.162Z,6.20
2023-03-28T08:27:33.788Z,6.30
2023-03-28T08:30:12.363Z,6.30
2023-03-28T08:32:51.138Z,6.30
2023-03-28T08:35:19.929Z,6.40
2023-03-28T08:37:52.297Z,6.50
2023-03-28T08:40:23.374Z,6.60
2023-03-28T08:43:21.091Z,6.70
2023-03-28T08:45:56.886Z,6.70
2023-03-28T08:48:32.046Z,6.70
2023-03-28T08:51:09.618Z,6.80
2023-03-28T08:53:45.398Z,6.80
2023-03-28T08:56:17.644Z,6.90
2023-03-28T08:59:00.694Z,6.90
2023-03-28T09:01:36.736Z,6.90
2023-03-28T09:04:09.056Z,7.00
2023-03-28T09:06:46.200Z,7.10
2023-03-28T09:09:39.723Z,7.10
2023-03-28T09:12:46.311Z,7.20
2023-03-28T09:15:41.382Z,7.30
2023-03-28T09:18:52.730Z,7.40
2023-03-28T09:21:37.742Z,7.60
2023-03-28T09:24:54.547Z,7.60
2023-03-28T09:27:36.610Z,7.70
2023-03-28T09:30:23.272Z,7.90
2023-03-28T09:33:01.583Z,7.90
2023-03-28T09:35:38.572Z,7.70
2023-03-28T09:38:21.274Z,7.70
2023-03-28T09:40:57.025Z,7.70
2023-03-28T09:43:52.759Z,7.80
2023-03-28T09:46:43.857Z,8.10
2023-03-28T09:49:28.045Z,8.30
2023-03-28T09:52:15.210Z,8.50
2023-03-28T09:54:45.553Z,8.50
2023-03-28T09:57:16.246Z,8.60
2023-03-28T10:00:08.198Z,8.60
2023-03-28T10:02:58.235Z,8.50
2023-03-28T10:05:38.777Z,8.40
2023-03-28T10:08:28.473Z,8.20
2023-03-28T10:11:19.749Z,8.30
2023-03-28T10:13:54.011Z,8.50
2023-03-28T10:16:31.191Z,8.70
2023-03-28T10:19:01.218Z,8.50
2023-03-28T10:21:39.857Z,8.40
2023-03-28T10:24:22.861Z,8.40
2023-03-28T10:27:07.783Z,8.40
2023-03-28T10:29:39.689Z,8.50
2023-03-28T10:32:14.718Z,8.50
2023-03-28T10:35:03.721Z,8.90
2023-03-28T10:37:57.676Z,9.00
2023-03-28T10:40:45.994Z,9.20
2023-03-28T10:43:44.091Z,9.60
2023-03-28T10:46:37.630Z,10.00
2023-03-28T10:49:45.836Z,10.50
2023-03-28T10:52:38.456Z,10.80
2023-03-28T10:55:17.087Z,11.00
2023-03-28T10:58:23.958Z,11.10
2023-03-28T11:01:12.182Z,11.10
2023-03-28T11:04:10.355Z,11.20
2023-03-28T11:06:50.262Z,11.60
2023-03-28T11:09:41.614Z,12.00
2023-03-28T11:12:55.190Z,12.70
2023-03-28T11:15:41.767Z,13.30
2023-03-28T11:18:46.497Z,13.70
2023-03-28T11:21:33.346Z,13.90
2023-03-28T11:24:27.852Z,14.30
2023-03-28T11:27:27.991Z,14.60
2023-03-28T11:30:15.186Z,14.50
2023-03-28T11:33:04.644Z,14.60
2023-03-28T11:35:44.905Z,14.50
2023-03-28T11:38:22.706Z,14.40
2023-03-28T11:41:02.189Z,14.60
2023-03-28T11:44:00.728Z,14.80
2023-03-28T11:46:34.770Z,14.60
2023-03-28T11:49:20.649Z,14.30
2023-03-28T11:52:01.406Z,14.10
2023-03-28T11:54:42.429Z,14.20
2023-03-28T11:57:20.611Z,14.00
2023-03-28T12:00:06.273Z,13.50
2023-03-28T12:02:52.655Z,13.40
2023-03-28T12:05:35.422Z,13.70
2023-03-28T12:08:14.332Z,14.30
2023-03-28T12:10:54.411Z,15.00
2023-03-28T12:13:45.550Z,15.70
2023-03-28T12:16:24.466Z,16.70
2023-03-28T12:18:59.198Z,18.00
2023-03-28T12:21:46.062Z,18.80
2023-03-28T12:24:34.718Z,19.60
2023-03-28T12:27:27.808Z,20.00
2023-03-28T12:30:09.184Z,20.80
2023-03-28T12:32:50.671Z,21.10
2023-03-28T12:35:43.080Z,21.10
2023-03-28T12:38:41.065Z,21.30
2023-03-28T12:41:29.915Z,21.40
2023-03-28T12:44:09.908Z,21.70
2023-03-28T12:46:52.862Z,22.00
2023-03-28T12:49:40.000Z,22.20
2023-03-28T12:52:20.793Z,22.60
2023-03-28T12:55:01.314Z,23.00
2023-03-28T12:57:48.575Z,23.40
2023-03-28T13:00:36.852Z,24.10
2023-03-28T13:03:51.700Z,24.40
2023-03-28T13:06:41.007Z,25.00
2023-03-28T13:09:47.061Z,25.60
2023-03-28T13:12:41.825Z,25.70
2023-03-28T13:15:28.537Z,25.80
2023-03-28T13:18:33.902Z,25.80
2023-03-28T13:21:07.736Z,25.70
2023-03-28T13:23:47.496Z,25.30
2023-03-28T13:26:16.785Z,24.80
2023-03-28T13:28:51.853Z,24.10
2023-03-28T13:31:24.915Z,23.00
2023-03-28T13:33:58.824Z,22.50
2023-03-28T13:36:33.511Z,22.80
2023-03-28T13:39:26.240Z,23.50
2023-03-28T13:42:01.473Z,24.10
2023-03-28T13:44:44.268Z,23.60
2023-03-28T13:47:26.982Z,22.90
2023-03-28T13:50:04.472Z,22.40
2023-03-28T13:52:33.633Z,21.50
2023-03-28T13:55:04.518Z,21.30
2023-03-28T13:57:33.397Z,21.30
2023-03-28T14:00:07.355Z,20.70
2023-03-28T14:02:46.298Z,20.00
2023-03-28T14:05:21.680Z,20.30
2023-03-28T14:07:52.630Z,21.30
2023-03-28T14:10:28.907Z,22.70
2023-03-28T14:13:05.464Z,23.40
2023-03-28T14:15:40.575Z,24.50
2023-03-28T14:18:17.035Z,24.50
2023-03-28T14:20:47.645Z,24.20
2023-03-28T14:23:31.079Z,24.50
2023-03-28T14:26:02.735Z,25.20
2023-03-28T14:28:36.175Z,26.00
2023-03-28T14:31:17.555Z,26.10
2023-03-28T14:33:54.248Z,25.40
2023-03-28T14:36:26.524Z,24.00
2023-03-28T14:39:05.357Z,22.60
2023-03-28T14:41:40.279Z,21.50
2023-03-28T14:44:15.066Z,20.40
2023-03-28T14:46:50.204Z,19.20
2023-03-28T14:49:28.164Z,18.10
2023-03-28T14:52:04.188Z,17.40
2023-03-28T14:54:40.533Z,16.60
2023-03-28T14:57:18.264Z,16.10
2023-03-28T14:59:52.972Z,15.90
2023-03-28T15:02:31.755Z,15.90
2023-03-28T15:05:10.159Z,15.80
2023-03-28T15:07:46.238Z,15.70
2023-03-28T15:10:28.359Z,15.60
2023-03-28T15:13:16.580Z,15.10
2023-03-28T15:15:51.511Z,14.70
2023-03-28T15:18:34.834Z,14.30
2023-03-28T15:21:09.720Z,14.00
2023-03-28T15:23:48.499Z,13.80
2023-03-28T15:26:30.264Z,13.70
2023-03-28T15:29:04.011Z,13.60
2023-03-28T15:31:41.606Z,13.50
2023-03-28T15:34:21.156Z,13.30
2023-03-28T15:36:57.053Z,13.20
2023-03-28T15:39:33.475Z,13.10
2023-03-28T15:42:37.120Z,13.20
2023-03-28T15:45:38.783Z,13.30
2023-03-28T15:48:16.651Z,13.50
2023-03-28T15:50:54.009Z,13.70
2023-03-28T15:53:31.582Z,13.70
2023-03-28T15:56:10.966Z,13.80
2023-03-28T15:58:48.404Z,13.80
2023-03-28T16:01:27.361Z,13.70
2023-03-28T16:04:33.608Z,13.80
2023-03-28T16:07:18.062Z,13.20
2023-03-28T16:09:52.096Z,13.00
2023-03-28T16:12:23.663Z,12.80
2023-03-28T16:15:26.034Z,12.60
2023-03-28T16:18:02.935Z,12.40
2023-03-28T16:20:44.719Z,12.30
2023-03-28T16:23:17.147Z,12.30
2023-03-28T16:25:47.557Z,12.20
2023-03-28T16:28:21.258Z,12.20
2023-03-28T16:30:55.050Z,12.10
2023-03-28T16:33:26.814Z,12.00
2023-03-28T16:35:58.868Z,11.90
2023-03-28T16:38:31.656Z,11.90
2023-03-28T16:41:05.074Z,11.70
2023-03-28T16:43:40.574Z,11.70
2023-03-28T16:46:12.503Z,11.60
2023-03-28T16:48:45.813Z,11.70
2023-03-28T16:51:18.416Z,11.60
2023-03-28T16:53:53.151Z,11.50
2023-03-28T16:56:29.086Z,11.40
2023-03-28T16:59:03.412Z,11.20
2023-03-28T17:01:36.404Z,11.20
2023-03-28T17:04:08.570Z,11.10
2023-03-28T17:06:41.306Z,10.90
2023-03-28T17:09:14.237Z,10.80
2023-03-28T17:11:45.752Z,10.80
2023-03-28T17:14:17.043Z,10.70
2023-03-28T17:16:47.086Z,10.50
2023-03-28T17:19:24.126Z,10.40
2023-03-28T17:21:57.456Z,10.20
2023-03-28T17:24:31.855Z,10.10
2023-03-28T17:27:01.902Z,10.10
2023-03-28T17:29:34.941Z,10.10
2023-03-28T17:32:06.985Z,10.00
2023-03-28T17:34:40.883Z,9.90
2023-03-28T17:37:11.859Z,9.90
2023-03-28T17:39:45.847Z,9.90
2023-03-28T17:42:17.803Z,9.80
2023-03-28T17:44:48.935Z,9.70
2023-03-28T17:47:18.726Z,9.70
2023-03-28T17:49:52.918Z,9.70
2023-03-28T17:52:26.988Z,9.70
2023-03-28T17:55:02.281Z,9.60
2023-03-28T17:57:35.556Z,9.60
2023-03-28T18:00:08.373Z,9.60
2023-03-28T18:02:48.905Z,9.60
2023-03-28T18:05:39.384Z,9.50
2023-03-28T18:08:11.198Z,9.50
2023-03-28T18:10:44.259Z,9.40
2023-03-28T18:13:19.414Z,9.30
2023-03-28T18:15:51.576Z,9.30
2023-03-28T18:18:23.261Z,9.20
2023-03-28T18:20:55.571Z,9.20
2023-03-28T18:23:28.718Z,9.20
2023-03-28T18:26:04.038Z,9.10
2023-03-28T18:28:35.818Z,9.10
2023-03-28T18:31:11.316Z,9.00
2023-03-28T18:33:44.862Z,9.00
2023-03-28T18:36:17.549Z,9.00
2023-03-28T18:38:50.635Z,8.90
2023-03-28T18:41:22.645Z,8.90
2023-03-28T18:43:52.847Z,8.80
2023-03-28T18:46:25.726Z,8.80
2023-03-28T18:48:58.031Z,8.70
2023-03-28T18:51:31.174Z,8.70
2023-03-28T18:54:02.917Z,8.70
2023-03-28T18:56:37.618Z,8.70
2023-03-28T18:59:11.704Z,8.60
2023-03-28T19:01:44.905Z,8.60
2023-03-28T19:04:15.572Z,8.60
2023-03-28T19:06:47.514Z,8.60
2023-03-28T19:09:18.805Z,8.60
2023-03-28T19:11:54.878Z,8.60
2023-03-28T19:14:26.407Z,8.60
2023-03-28T19:16:56.800Z,8.50
2023-03-28T19:19:28.116Z,8.50
2023-03-28T19:21:58.385Z,8.50
2023-03-28T19:24:30.037Z,8.50
2023-03-28T19:27:05.121Z,8.40
2023-03-28T19:29:35.968Z,8.30
2023-03-28T19:32:07.125Z,8.30
2023-03-28T19:34:38.905Z,8.30
2023-03-28T19:37:10.574Z,8.30
2023-03-28T19:39:41.467Z,8.30
2023-03-28T19:42:13.704Z,8.20
2023-03-28T19:44:44.375Z,8.20
2023-03-28T19:47:15.915Z,8.20
2023-03-28T19:49:47.190Z,8.20
2023-03-28T19:52:17.890Z,8.20
2023-03-28T19:54:49.459Z,8.20
2023-03-28T19:57:21.367Z,8.10
2023-03-28T19:59:51.553Z,8.10
2023-03-28T20:02:22.707Z,8.10
2023-03-28T20:04:54.500Z,8.10
2023-03-28T20:07:26.926Z,8.10
2023-03-28T20:09:57.186Z,8.10
2023-03-28T20:12:28.376Z,8.10
2023-03-28T20:15:00.174Z,8.20
2023-03-28T20:17:31.330Z,8.10
2023-03-28T20:20:02.582Z,8.00
2023-03-28T20:22:34.778Z,7.90
2023-03-28T20:25:05.570Z,7.90
2023-03-28T20:27:39.434Z,7.90
2023-03-28T20:30:11.517Z,7.90
2023-03-28T20:32:42.002Z,7.90
2023-03-28T20:35:13.374Z,8.00
2023-03-28T20:37:43.203Z,8.00
2023-03-28T20:40:14.990Z,8.00
2023-03-28T20:42:47.789Z,8.00
2023-03-28T20:45:22.534Z,8.10
2023-03-28T20:47:59.325Z,8.10
2023-03-28T20:50:35.068Z,8.10
2023-03-28T20:53:10.288Z,8.10
2023-03-28T20:55:42.253Z,8.20
2023-03-28T20:58:14.735Z,8.10
2023-03-28T21:00:46.962Z,8.10
2023-03-28T21:03:19.685Z,8.10
2023-03-28T21:05:54.497Z,8.10
2023-03-28T21:08:28.688Z,8.00
2023-03-28T21:11:00.758Z,7.80
2023-03-28T21:13:33.777Z,7.90
2023-03-28T21:16:05.690Z,7.90
2023-03-28T21:18:37.630Z,7.90
2023-03-28T21:21:10.475Z,7.90
2023-03-28T21:23:42.636Z,7.90
2023-03-28T21:26:17.669Z,7.80
2023-03-28T21:28:52.628Z,7.90
2023-03-28T21:31:27.171Z,7.80
2023-03-28T21:34:00.097Z,7.90
2023-03-28T21:36:30.521Z,7.90
2023-03-28T21:39:02.466Z,7.90
2023-03-28T21:41:33.252Z,7.80
2023-03-28T21:44:03.698Z,7.80
2023-03-28T21:46:32.501Z,7.80
2023-03-28T21:49:01.799Z,7.70
2023-03-28T21:51:32.557Z,7.70
2023-03-28T21:54:01.482Z,7.70
2023-03-28T21:56:30.963Z,7.70
2023-03-28T21:58:59.802Z,7.80
2023-03-28T22:01:29.950Z,7.80
2023-03-28T22:03:58.742Z,7.80
2023-03-28T22:06:27.537Z,7.80
2023-03-28T22:08:56.997Z,7.80
2023-03-28T22:11:28.903Z,7.80
2023-03-28T22:14:04.097Z,7.80
2023-03-28T22:16:39.995Z,7.80
2023-03-28T22:19:14.416Z,7.80
2023-03-28T22:21:45.903Z,8.10
2023-03-28T22:24:15.934Z,7.70
2023-03-28T22:26:48.672Z,7.70
2023-03-28T22:29:19.012Z,7.70
2023-03-28T22:31:52.768Z,7.70
2023-03-28T22:34:23.169Z,7.60
2023-03-28T22:36:55.036Z,7.50
2023-03-28T22:39:25.487Z,7.40
2023-03-28T22:41:55.887Z,7.40
2023-03-28T22:44:28.278Z,7.40
2023-03-28T22:47:02.997Z,7.40
2023-03-28T22:49:34.669Z,7.40
2023-03-28T22:52:06.616Z,7.40
2023-03-28T22:54:39.516Z,7.40
2023-03-28T22:57:09.763Z,7.40
2023-03-28T22:59:41.070Z,7.40
2023-03-28T23:02:12.513Z,7.40
2023-03-28T23:04:43.379Z,7.40
2023-03-28T23:07:14.027Z,7.30
2023-03-28T23:09:44.234Z,7.30
2023-03-28T23:12:14.439Z,7.20
2023-03-28T23:14:44.315Z,7.20
2023-03-28T23:17:16.228Z,7.10
2023-03-28T23:19:48.174Z,7.10
2023-03-28T23:22:19.444Z,7.10
2023-03-28T23:24:50.814Z,7.00
2023-03-28T23:27:21.071Z,7.00
2023-03-28T23:29:50.499Z,6.90
2023-03-28T23:32:22.457Z,6.90
2023-03-28T23:34:55.573Z,6.80
2023-03-28T23:37:28.836Z,6.70
2023-03-28T23:40:00.158Z,6.70
2023-03-28T23:42:30.380Z,6.70
2023-03-28T23:45:00.812Z,6.70
2023-03-28T23:47:31.921Z,6.70
2023-03-28T23:50:01.072Z,6.70
2023-03-28T23:52:33.594Z,6.70
2023-03-28T23:55:03.136Z,6.70
2023-03-28T23:57:33.933Z,6.70
